Juanda International Airport
WARR : now visible

Airfield :











YOU CAN JOIN US ON...

 
LOGIN :

Register | Disclaimer

   EN    FR    IT 

 









Legend :    VFR   Marginal VFR   IFR   Intensive IFR   Very Intensive IFR
Visi :
Ceiling :
>= 8 km
>= 3000ft
5 to 8 km
1000 to 3000 ft
1500m to 5 km
500 to 1000 ft
800 to 1500m
200 to 500 ft
< 800m
< 200 ft
Symbols :   Thunderstorms  Fog  Heavy snow  Heavy precipitations  Wind > 20 kt






- Airport Elevation : 9 ft
- IATA code : SUB


WARR - Juanda International

CURRENT METAR :
  • 032100Z 10008KT 8000 FEW020 28/26 Q1007 NOSIG

EXPIRED METARs :
  • 032030Z 10009KT 8000 FEW020 28/26 Q1007 NOSIG
  • 032000Z 10009KT 8000 FEW020 28/26 Q1007 NOSIG
  • 031930Z 08009KT 8000 FEW020 28/26 Q1007 NOSIG
  • 031900Z 08009KT 8000 FEW020 28/26 Q1007 NOSIG
  • 031830Z 08010KT 8000 FEW020 28/26 Q1008 NOSIG

TAF TAF WARR
Valid from the 03 at 18:00 until the 04 at 18:00 UTC


031700Z 0318/0418 08010KT 8000 FEW020
BECMG 0320/0322 24005KT 5000 HZ
BECMG 0400/0402 08010KT 9999 NSW
WAAF FIR / Asia



MET'MAP, your aeronautical weather chart ! - Copyright ORBIFLY December 2007 - Disclaimer

ORBIFLY MET'MAP TEAM :

Programming & Development : Alexandra Zaïnal
Original concept : Baudouin d'Aumeries
Technical & hardware support : Manuel Goepfert
Assistance : Marc-Olivier Méhu




SOURCES & CREDITS :

   NOAA       Earth
Advisory